createdAt,value
2018-03-30T00:15:56.154Z,19.7
2018-03-30T00:32:41.495Z,19.4
2018-03-30T00:49:27.518Z,19.4
2018-03-30T01:06:13.624Z,19.4
2018-03-30T01:22:59.870Z,19.4
2018-03-30T01:39:45.907Z,19.4
2018-03-30T01:56:31.968Z,19.4
2018-03-30T02:13:17.608Z,19.0
2018-03-30T02:30:03.263Z,19.0
2018-03-30T02:46:49.662Z,19.0
2018-03-30T03:03:34.500Z,19.0
2018-03-30T03:20:20.381Z,19.0
2018-03-30T03:37:05.989Z,19.0
2018-03-30T03:53:51.464Z,19.0
2018-03-30T04:10:36.947Z,19.0
2018-03-30T04:27:22.741Z,19.0
2018-03-30T04:44:08.314Z,19.0
2018-03-30T05:00:54.009Z,19.0
2018-03-30T05:17:39.765Z,19.0
2018-03-30T05:34:25.468Z,19.0
2018-03-30T05:51:11.712Z,19.0
2018-03-30T06:07:57.393Z,19.4
2018-03-30T06:24:44.188Z,19.4
2018-03-30T06:41:29.456Z,19.4
2018-03-30T06:58:15.666Z,19.4
2018-03-30T07:15:01.365Z,19.4
2018-03-30T07:31:47.280Z,19.4
2018-03-30T07:48:33.397Z,19.4
2018-03-30T08:05:20.091Z,19.7
2018-03-30T08:22:06.945Z,20.0
2018-03-30T08:38:53.744Z,20.0
2018-03-30T08:55:40.520Z,20.0
2018-03-30T09:12:27.521Z,20.3
2018-03-30T09:29:14.704Z,20.3
2018-03-30T09:46:02.012Z,20.6
2018-03-30T10:02:49.539Z,20.6
2018-03-30T10:19:37.316Z,21.0
2018-03-30T10:36:25.463Z,21.3
2018-03-30T10:53:13.772Z,21.3
2018-03-30T11:10:02.157Z,21.6
2018-03-30T11:26:50.736Z,21.6
2018-03-30T11:43:39.392Z,21.6
2018-03-30T12:00:28.298Z,21.9
2018-03-30T12:17:17.506Z,22.2
2018-03-30T12:34:07.608Z,22.2
2018-03-30T12:50:56.257Z,22.2
2018-03-30T13:07:45.651Z,22.2
2018-03-30T13:24:35.987Z,21.9
2018-03-30T13:41:24.660Z,21.9
2018-03-30T13:58:14.008Z,21.9
2018-03-30T14:15:03.031Z,21.9
2018-03-30T14:31:52.281Z,21.9
2018-03-30T14:48:42.638Z,21.9
2018-03-30T15:05:31.601Z,21.9
2018-03-30T15:22:20.074Z,21.9
2018-03-30T15:39:08.055Z,21.6
2018-03-30T15:55:56.952Z,21.6
2018-03-30T16:12:45.786Z,21.6
2018-03-30T16:29:34.581Z,21.3
2018-03-30T16:46:23.130Z,21.3
2018-03-30T17:03:11.876Z,21.3
2018-03-30T17:20:00.066Z,21.0
2018-03-30T17:36:48.886Z,21.0
2018-03-30T17:53:36.943Z,21.0
2018-03-30T18:10:25.359Z,21.0
2018-03-30T18:27:13.631Z,21.0
2018-03-30T18:44:01.884Z,21.0
2018-03-30T19:00:50.169Z,20.6
2018-03-30T19:17:38.431Z,20.6
2018-03-30T19:34:26.486Z,20.6
2018-03-30T19:51:13.790Z,20.6
2018-03-30T20:08:01.053Z,20.6
2018-03-30T20:24:48.197Z,20.6
2018-03-30T20:41:35.687Z,20.6
2018-03-30T20:58:23.060Z,20.6
2018-03-30T21:15:11.396Z,20.6
2018-03-30T21:31:58.683Z,20.6
2018-03-30T21:48:46.525Z,20.6
2018-03-30T22:05:33.999Z,20.3
2018-03-30T22:22:20.966Z,20.3
2018-03-30T22:39:08.438Z,20.3
2018-03-30T22:55:54.867Z,20.0
2018-03-30T23:12:41.608Z,20.0
2018-03-30T23:29:27.888Z,20.0
2018-03-30T23:46:14.438Z,20.0
